Time;durP1;ratioP1;P1;durP2;ratioP2;P2;SDS_P1;SDS_P2;PMS_P1;PMS_P2;Temp;Humidity;BMP_temperature;BMP_pressure;BME280_temperature;BME280_humidity;BME280_pressure;Samples;Min_cycle;Max_cycle;Signal;HPM_P1;HPM_P2
2023/01/02 00:00:46;;;;;;;76.80;41.73;;;;;;;5.79;100.00;100875.47;5090143;28;20203;-51
2023/01/02 00:03:13;;;;;;;67.87;39.50;;;;;;;5.81;100.00;100871.19;5089623;28;20206;-50
2023/01/02 00:05:40;;;;;;;70.23;38.87;;;;;;;5.83;100.00;100879.81;5090234;28;20195;-50
2023/01/02 00:08:06;;;;;;;68.80;39.43;;;;;;;5.74;100.00;100876.28;5089906;28;20256;-51
2023/01/02 00:10:33;;;;;;;71.03;38.93;;;;;;;5.81;100.00;100875.50;5090085;28;20196;-57
2023/01/02 00:13:00;;;;;;;66.20;38.57;;;;;;;5.76;100.00;100874.56;5090347;28;20217;-57
2023/01/02 00:15:27;;;;;;;70.73;38.27;;;;;;;5.75;100.00;100885.72;5089851;28;20206;-56
2023/01/02 00:17:55;;;;;;;67.83;37.63;;;;;;;5.63;100.00;100885.56;5089662;28;20206;-57
2023/01/02 00:20:22;;;;;;;71.43;38.30;;;;;;;5.41;100.00;100885.28;5089804;28;20199;-50
2023/01/02 00:22:49;;;;;;;63.37;37.33;;;;;;;5.51;100.00;100891.44;5090064;28;20664;-50
2023/01/02 00:25:16;;;;;;;68.73;37.53;;;;;;;5.48;100.00;100891.38;5089538;28;20195;-51
2023/01/02 00:27:43;;;;;;;63.73;35.30;;;;;;;5.53;100.00;100891.44;5089606;28;20227;-50
2023/01/02 00:30:12;;;;;;;65.17;34.83;;;;;;;5.56;100.00;100887.19;5089337;28;20205;-51
2023/01/02 00:32:39;;;;;;;63.33;35.63;;;;;;;5.47;100.00;100884.50;5089772;28;20663;-49
2023/01/02 00:35:08;;;;;;;65.40;36.13;;;;;;;5.38;100.00;100892.09;5089451;28;20199;-51
2023/01/02 00:37:35;;;;;;;58.63;34.33;;;;;;;5.43;100.00;100893.88;5089803;28;20540;-49
2023/01/02 00:40:02;;;;;;;63.83;35.63;;;;;;;5.36;100.00;100898.91;5089576;28;20620;-50
2023/01/02 00:42:29;;;;;;;61.47;35.33;;;;;;;5.36;100.00;100901.50;5089273;28;20199;-49
2023/01/02 00:44:56;;;;;;;63.00;35.27;;;;;;;5.31;100.00;100903.13;5089290;28;20203;-51
2023/01/02 00:47:23;;;;;;;59.93;35.63;;;;;;;5.27;100.00;100899.66;5089448;28;20734;-49
2023/01/02 00:49:50;;;;;;;64.93;33.93;;;;;;;5.32;100.00;100902.28;5089692;28;20693;-58
2023/01/02 00:52:18;;;;;;;54.47;34.87;;;;;;;5.27;100.00;100897.09;5089273;28;20195;-58
2023/01/02 00:54:45;;;;;;;54.83;33.47;;;;;;;5.25;100.00;100892.75;5089505;28;20604;-58
2023/01/02 00:57:12;;;;;;;59.03;34.27;;;;;;;5.24;100.00;100896.16;5089251;28;20697;-58
2023/01/02 00:59:39;;;;;;;57.87;33.53;;;;;;;5.11;100.00;100874.53;5089274;28;20569;-58
2023/01/02 01:02:06;;;;;;;65.93;35.93;;;;;;;5.07;100.00;100883.06;5089515;28;20198;-57
2023/01/02 01:04:33;;;;;;;53.37;32.90;;;;;;;5.05;100.00;100888.19;5089621;28;20590;-57
2023/01/02 01:07:00;;;;;;;56.63;31.67;;;;;;;4.97;100.00;100887.19;5089146;28;20687;-58
2023/01/02 01:09:28;;;;;;;52.20;30.37;;;;;;;5.00;100.00;100887.22;5092270;28;20206;-52
2023/01/02 01:11:55;;;;;;;51.13;30.83;;;;;;;5.03;100.00;100878.69;5093098;28;20209;-50
2023/01/02 01:14:22;;;;;;;56.83;30.47;;;;;;;5.15;100.00;100883.16;5093460;28;20699;-58
2023/01/02 01:16:49;;;;;;;52.63;30.30;;;;;;;5.21;100.00;100880.66;5093219;28;20195;-58
2023/01/02 01:19:16;;;;;;;52.33;29.53;;;;;;;5.26;100.00;100881.63;5093154;28;20206;-58
2023/01/02 01:21:44;;;;;;;47.83;30.30;;;;;;;5.14;100.00;100879.72;5093110;28;20286;-58
2023/01/02 01:24:11;;;;;;;45.47;29.23;;;;;;;5.14;100.00;100884.88;5093009;28;20199;-51
2023/01/02 01:26:39;;;;;;;45.53;29.47;;;;;;;5.19;100.00;100872.09;5092826;28;20210;-50
2023/01/02 01:29:06;;;;;;;51.37;28.77;;;;;;;5.21;100.00;100876.38;5093193;28;20197;-50
2023/01/02 01:31:33;;;;;;;49.83;29.87;;;;;;;5.21;100.00;100866.09;5092978;28;20203;-50
2023/01/02 01:34:00;;;;;;;49.70;29.47;;;;;;;5.31;100.00;100861.94;5093136;28;20203;-49
2023/01/02 01:36:26;;;;;;;47.93;28.50;;;;;;;5.32;100.00;100864.53;5092858;28;20203;-50
2023/01/02 01:38:53;;;;;;;47.73;29.40;;;;;;;5.29;100.00;100863.66;5092731;28;20195;-50
2023/01/02 01:41:23;;;;;;;48.17;29.17;;;;;;;5.26;100.00;100861.03;5092503;28;20231;-50
2023/01/02 01:43:52;;;;;;;44.30;28.43;;;;;;;5.25;100.00;100833.56;5092692;28;20203;-57
2023/01/02 01:46:26;;;;;;;53.20;29.73;;;;;;;5.40;100.00;100844.94;5092451;28;20194;-57
2023/01/02 01:48:59;;;;;;;45.83;28.30;;;;;;;5.33;100.00;100845.66;5092490;28;20218;-56
2023/01/02 01:51:28;;;;;;;49.87;28.57;;;;;;;5.20;100.00;100838.63;5092452;28;20199;-57
2023/01/02 01:54:02;;;;;;;47.53;29.27;;;;;;;5.20;100.00;100832.59;5091920;28;20234;-57
2023/01/02 01:56:29;;;;;;;45.97;27.53;;;;;;;5.16;100.00;100836.88;5092504;28;20221;-57
2023/01/02 01:58:58;;;;;;;44.50;28.10;;;;;;;5.23;100.00;100832.66;5092576;28;20195;-49
2023/01/02 02:01:25;;;;;;;49.53;28.43;;;;;;;5.26;100.00;100833.56;5092714;28;20202;-51
2023/01/02 02:03:52;;;;;;;44.73;27.83;;;;;;;5.27;100.00;100834.44;5092418;28;20203;-56
2023/01/02 02:06:19;;;;;;;41.90;26.43;;;;;;;5.35;100.00;100837.97;5092060;28;20202;-58
2023/01/02 02:08:54;;;;;;;43.67;27.00;;;;;;;5.21;100.00;100816.31;5092040;28;20233;-57
2023/01/02 02:11:21;;;;;;;46.60;27.63;;;;;;;5.29;100.00;100835.34;5092012;28;20195;-57
2023/01/02 02:13:49;;;;;;;41.80;26.97;;;;;;;5.29;100.00;100828.47;5092060;28;20197;-57
2023/01/02 02:16:34;;;;;;;42.37;26.60;;;;;;;5.22;100.00;100839.50;5092022;28;20274;-57
2023/01/02 02:19:49;;;;;;;49.43;28.07;;;;;;;5.24;100.00;100834.38;5091602;28;20569;-50
2023/01/02 02:22:40;;;;;;;40.13;26.27;;;;;;;5.20;100.00;100833.47;5029297;28;20211;-49
2023/01/02 02:25:33;;;;;;;42.70;26.73;;;;;;;5.14;100.00;100833.41;5087616;28;20210;-50
2023/01/02 02:28:28;;;;;;;51.17;28.73;;;;;;;5.11;100.00;100834.22;5091769;28;20223;-57
2023/01/02 02:31:02;;;;;;;44.07;27.87;;;;;;;5.11;100.00;100841.94;5092296;28;20210;-57
2023/01/02 02:33:38;;;;;;;46.30;28.10;;;;;;;5.08;100.00;100841.88;5091840;28;20195;-56
2023/01/02 02:36:15;;;;;;;43.03;25.83;;;;;;;5.07;100.00;100831.59;5091632;28;20195;-56
2023/01/02 02:39:06;;;;;;;39.70;24.20;;;;;;;5.17;100.00;100830.88;5091817;28;20263;-57
2023/01/02 02:41:34;;;;;;;38.30;24.67;;;;;;;5.22;100.00;100824.06;5091412;28;20208;-58
2023/01/02 02:44:12;;;;;;;36.33;23.07;;;;;;;5.15;100.00;100827.41;5091713;28;20662;-51
2023/01/02 02:46:50;;;;;;;42.47;23.27;;;;;;;5.05;100.00;100816.13;5091554;28;20197;-57
2023/01/02 02:49:27;;;;;;;34.93;22.07;;;;;;;5.01;100.00;100814.34;5091450;28;20575;-50
2023/01/02 02:52:02;;;;;;;36.03;22.83;;;;;;;5.08;100.00;100818.72;5091840;28;20558;-50
2023/01/02 02:54:34;;;;;;;35.30;23.20;;;;;;;5.01;100.00;100811.78;5091709;28;20202;-50
2023/01/02 02:57:03;;;;;;;35.10;21.80;;;;;;;5.06;100.00;100809.28;5091549;28;20216;-58
2023/01/02 02:59:31;;;;;;;34.80;21.17;;;;;;;5.10;100.00;100816.19;5091356;28;20778;-57
2023/01/02 03:01:59;;;;;;;33.83;21.57;;;;;;;5.08;100.00;100786.97;5091488;28;20195;-57
2023/01/02 03:04:26;;;;;;;33.10;21.70;;;;;;;5.17;100.00;100807.72;5091114;28;20198;-51
2023/01/02 03:07:11;;;;;;;34.03;21.67;;;;;;;5.24;100.00;100798.34;5091277;28;20874;-51
2023/01/02 03:09:50;;;;;;;34.17;21.27;;;;;;;5.21;100.00;100798.31;5091197;28;20209;-50
2023/01/02 03:12:24;;;;;;;40.27;23.20;;;;;;;5.10;100.00;100793.88;5091112;28;20679;-49
2023/01/02 03:14:58;;;;;;;36.57;22.47;;;;;;;5.08;100.00;100807.56;5090888;28;20191;-52
2023/01/02 03:17:36;;;;;;;37.07;23.13;;;;;;;4.98;100.00;100808.28;5090802;28;20195;-51
2023/01/02 03:20:08;;;;;;;38.10;23.57;;;;;;;5.06;100.00;100807.56;5090720;28;20195;-50
2023/01/02 03:22:40;;;;;;;34.90;23.00;;;;;;;5.08;100.00;100805.00;5090900;28;20200;-50
2023/01/02 03:25:10;;;;;;;31.03;22.53;;;;;;;5.14;100.00;100797.38;5090653;28;20213;-57
2023/01/02 03:27:41;;;;;;;34.97;23.77;;;;;;;5.09;100.00;100805.00;5091028;28;20661;-57
2023/01/02 03:30:11;;;;;;;42.47;23.27;;;;;;;5.00;100.00;100802.31;5090420;28;20203;-50
2023/01/02 03:32:44;;;;;;;38.03;22.97;;;;;;;4.91;100.00;100802.19;5089576;28;20198;-50
2023/01/02 03:35:14;;;;;;;34.43;23.07;;;;;;;4.86;100.00;100806.38;5090373;28;20201;-50
2023/01/02 03:37:44;;;;;;;34.93;23.13;;;;;;;4.82;100.00;100803.78;5090320;28;20198;-50
2023/01/02 03:40:16;;;;;;;39.27;23.90;;;;;;;4.85;100.00;100804.69;5090199;28;20249;-50
2023/01/02 03:42:49;;;;;;;35.50;23.47;;;;;;;4.86;100.00;100805.53;5090338;28;20650;-57
2023/01/02 03:45:20;;;;;;;39.87;24.53;;;;;;;4.89;100.00;100805.56;5090585;28;20187;-50
2023/01/02 03:47:56;;;;;;;35.17;23.23;;;;;;;4.86;100.00;100793.53;5090419;28;20227;-50
2023/01/02 03:50:27;;;;;;;38.93;23.23;;;;;;;4.97;100.00;100804.84;5090046;28;20199;-57
2023/01/02 03:52:54;;;;;;;33.57;22.60;;;;;;;4.96;100.00;100818.56;5090201;28;20195;-49
2023/01/02 03:55:23;;;;;;;35.27;22.23;;;;;;;4.98;100.00;100806.56;5090196;28;20203;-50
2023/01/02 03:58:01;;;;;;;37.10;23.37;;;;;;;5.02;100.00;100813.50;5090348;28;20187;-50
2023/01/02 04:00:36;;;;;;;36.37;23.77;;;;;;;4.83;100.00;100816.66;5090002;28;20198;-50
2023/01/02 04:03:10;;;;;;;39.47;24.60;;;;;;;4.80;100.00;100826.03;5090290;28;20661;-51
2023/01/02 04:05:44;;;;;;;38.83;24.27;;;;;;;4.74;100.00;100826.78;5090174;28;20686;-50
2023/01/02 04:08:17;;;;;;;36.97;23.47;;;;;;;4.73;100.00;100820.81;5089838;28;20319;-50
2023/01/02 04:10:47;;;;;;;43.93;26.80;;;;;;;4.76;100.00;100825.09;5089847;28;20195;-50
2023/01/02 04:13:19;;;;;;;40.73;25.07;;;;;;;4.80;100.00;100826.88;5089621;28;20191;-50
2023/01/02 04:15:48;;;;;;;37.63;23.53;;;;;;;4.69;100.00;100829.28;5090222;28;20686;-50
2023/01/02 04:18:23;;;;;;;40.10;25.27;;;;;;;4.58;100.00;100829.97;5089549;28;20224;-50
2023/01/02 04:20:54;;;;;;;42.03;25.57;;;;;;;4.43;100.00;100825.41;5090054;28;20593;-50
2023/01/02 04:23:26;;;;;;;42.23;25.30;;;;;;;4.42;100.00;100833.09;5089905;28;20192;-50
2023/01/02 04:25:57;;;;;;;39.43;24.07;;;;;;;4.35;100.00;100833.00;5089384;28;20191;-51
2023/01/02 04:28:26;;;;;;;40.20;24.67;;;;;;;4.47;100.00;100826.34;5089642;28;20217;-50
2023/01/02 04:30:59;;;;;;;38.80;24.93;;;;;;;4.56;100.00;100822.22;5089649;28;20199;-57
2023/01/02 04:33:29;;;;;;;36.33;23.07;;;;;;;4.60;100.00;100828.28;5089596;28;20189;-57
2023/01/02 04:35:56;;;;;;;35.93;23.17;;;;;;;4.53;100.00;100821.28;5089758;28;20202;-58
2023/01/02 04:38:23;;;;;;;38.47;24.30;;;;;;;4.42;100.00;100817.69;5089580;28;20695;-57
2023/01/02 04:40:50;;;;;;;39.80;24.57;;;;;;;4.28;100.00;100796.91;5089465;28;20238;-50
2023/01/02 04:43:20;;;;;;;40.17;25.33;;;;;;;4.40;100.00;100812.53;5089201;28;20206;-50
2023/01/02 04:45:48;;;;;;;43.70;24.83;;;;;;;4.41;100.00;100805.66;5089640;28;20209;-50
2023/01/02 04:48:15;;;;;;;42.07;24.67;;;;;;;4.45;100.00;100807.47;5089231;28;20583;-50
2023/01/02 04:50:44;;;;;;;37.53;23.63;;;;;;;4.44;100.00;100816.88;5089310;28;20210;-50
2023/01/02 04:53:11;;;;;;;36.03;23.00;;;;;;;4.41;100.00;100814.25;5089476;28;20198;-51
2023/01/02 04:55:39;;;;;;;35.87;23.70;;;;;;;4.44;100.00;100814.31;5089312;28;20197;-50
2023/01/02 04:58:06;;;;;;;40.13;23.13;;;;;;;4.44;100.00;100821.16;5089358;28;20209;-50
2023/01/02 05:00:33;;;;;;;36.37;22.90;;;;;;;4.35;100.00;100825.31;5088417;28;20202;-50
2023/01/02 05:03:01;;;;;;;39.90;23.47;;;;;;;4.29;100.00;100826.88;5089031;28;20195;-51
2023/01/02 05:05:29;;;;;;;38.63;24.07;;;;;;;4.28;100.00;100820.91;5088995;28;20705;-50
2023/01/02 05:07:58;;;;;;;36.23;23.33;;;;;;;4.31;100.00;100820.06;5088350;28;20478;-58
2023/01/02 05:10:25;;;;;;;44.90;26.07;;;;;;;4.28;100.00;100820.03;5088905;28;20252;-57
2023/01/02 05:12:52;;;;;;;42.13;26.83;;;;;;;4.09;100.00;100818.81;5089219;28;20198;-57
2023/01/02 05:15:19;;;;;;;48.50;27.37;;;;;;;4.06;100.00;100821.38;5088941;28;20575;-58
2023/01/02 05:17:46;;;;;;;48.20;27.13;;;;;;;4.05;100.00;100805.91;5088886;28;20202;-58
2023/01/02 05:20:13;;;;;;;49.83;26.33;;;;;;;4.01;100.00;100802.41;5089190;28;20690;-57
2023/01/02 05:25:28;;;;;;;48.93;27.27;;;;;;;4.09;100.00;100817.97;5088941;28;20698;-58
2023/01/02 05:27:55;;;;;;;44.80;24.97;;;;;;;4.03;100.00;100812.72;5089156;28;20195;-49
2023/01/02 05:30:23;;;;;;;46.23;25.23;;;;;;;3.96;100.00;100816.88;5088815;28;20217;-57
2023/01/02 05:32:50;;;;;;;41.33;25.90;;;;;;;3.86;100.00;100814.97;5089116;28;20205;-51
2023/01/02 05:35:17;;;;;;;39.63;24.13;;;;;;;3.98;100.00;100816.06;5088597;28;20191;-49
2023/01/02 05:37:44;;;;;;;40.00;25.23;;;;;;;3.99;100.00;100819.50;5089007;28;20198;-50
2023/01/02 05:40:12;;;;;;;41.03;24.17;;;;;;;4.07;100.00;100828.19;5088659;28;20223;-51
2023/01/02 05:42:40;;;;;;;37.00;25.17;;;;;;;3.95;100.00;100825.44;5089218;28;20546;-50
2023/01/02 05:45:08;;;;;;;38.53;24.10;;;;;;;3.98;100.00;100821.19;5088833;28;20202;-50
2023/01/02 05:47:35;;;;;;;37.60;22.97;;;;;;;3.89;100.00;100828.75;5088568;28;20200;-56
2023/01/02 05:50:02;;;;;;;34.93;22.63;;;;;;;3.91;100.00;100827.06;5088552;28;20266;-56
2023/01/02 05:52:29;;;;;;;40.53;23.20;;;;;;;3.89;100.00;100830.44;5088889;28;20196;-57
2023/01/02 05:54:56;;;;;;;38.63;23.17;;;;;;;3.84;100.00;100814.94;5089665;28;20681;-56
2023/01/02 05:57:23;;;;;;;34.20;21.97;;;;;;;3.78;100.00;100822.53;5092325;28;20221;-57
2023/01/02 05:59:51;;;;;;;37.90;22.53;;;;;;;3.91;100.00;100826.19;5092504;28;20210;-57
2023/01/02 06:02:18;;;;;;;34.47;21.13;;;;;;;4.01;100.00;100822.97;5092497;28;20604;-57
2023/01/02 06:04:45;;;;;;;35.37;22.00;;;;;;;4.16;100.00;100819.81;5092378;28;20222;-57
2023/01/02 06:07:11;;;;;;;36.10;21.90;;;;;;;4.21;100.00;100818.19;5092170;28;20772;-56
2023/01/02 06:09:38;;;;;;;34.50;22.20;;;;;;;4.22;100.00;100831.06;5092080;28;20605;-49
2023/01/02 06:12:05;;;;;;;36.03;22.60;;;;;;;4.13;100.00;100830.03;5091872;28;20206;-49
2023/01/02 06:14:32;;;;;;;35.07;22.23;;;;;;;4.22;100.00;100835.34;5092290;28;20583;-56
2023/01/02 06:17:01;;;;;;;35.23;22.17;;;;;;;4.28;100.00;100836.31;5092254;28;20206;-49
2023/01/02 06:19:27;;;;;;;38.37;21.70;;;;;;;4.36;100.00;100845.03;5092115;28;20222;-48
2023/01/02 06:21:54;;;;;;;35.07;22.13;;;;;;;4.38;100.00;100838.22;5086426;28;20228;-56
2023/01/02 06:24:21;;;;;;;35.57;21.87;;;;;;;4.37;100.00;100840.75;5071295;28;20254;-49
2023/01/02 06:26:48;;;;;;;37.47;23.10;;;;;;;4.49;100.00;100848.69;5070688;28;20226;-49
2023/01/02 06:29:15;;;;;;;41.40;24.30;;;;;;;4.52;100.00;100840.13;5071369;28;20681;-49
2023/01/02 06:31:42;;;;;;;34.93;23.57;;;;;;;4.65;100.00;100849.78;5071035;28;20289;-49
2023/01/02 06:34:11;;;;;;;41.03;23.47;;;;;;;4.48;100.00;100853.78;5070678;28;20222;-49
2023/01/02 06:36:38;;;;;;;34.37;22.50;;;;;;;4.62;100.00;100849.75;5071046;28;20228;-50
2023/01/02 06:39:05;;;;;;;35.27;22.93;;;;;;;4.44;100.00;100854.56;5081298;28;20267;-50
2023/01/02 06:41:32;;;;;;;38.87;23.07;;;;;;;4.57;100.00;100853.94;5090146;28;20258;-50
2023/01/02 06:43:59;;;;;;;38.90;23.20;;;;;;;4.71;100.00;100855.03;5090900;28;20554;-51
2023/01/02 06:46:26;;;;;;;33.97;22.60;;;;;;;4.73;100.00;100856.81;5091720;28;20197;-49
2023/01/02 06:48:53;;;;;;;33.70;22.23;;;;;;;4.84;100.00;100868.97;5091428;28;20250;-58
2023/01/02 06:51:23;;;;;;;33.83;21.90;;;;;;;4.86;100.00;100873.28;5091195;28;20198;-50
2023/01/02 06:53:50;;;;;;;36.73;21.07;;;;;;;4.90;100.00;100875.06;5090997;28;20195;-58
2023/01/02 06:56:19;;;;;;;40.00;22.30;;;;;;;4.97;100.00;100871.72;5091163;28;20605;-58
2023/01/02 06:58:46;;;;;;;31.77;21.33;;;;;;;4.89;100.00;100878.47;5091062;28;20203;-57
2023/01/02 07:01:15;;;;;;;31.07;20.53;;;;;;;5.02;100.00;100887.25;5090942;28;20200;-50
2023/01/02 07:03:42;;;;;;;36.00;22.27;;;;;;;4.96;100.00;100889.75;5091049;28;20202;-51
2023/01/02 07:06:11;;;;;;;30.47;21.03;;;;;;;5.01;100.00;100894.13;5091011;28;20233;-50
2023/01/02 07:08:40;;;;;;;36.40;23.30;;;;;;;5.01;100.00;100904.41;5090857;28;20280;-49
2023/01/02 07:11:12;;;;;;;32.47;21.53;;;;;;;5.00;100.00;100876.94;5090903;28;20207;-49
2023/01/02 07:13:40;;;;;;;35.50;21.60;;;;;;;4.90;100.00;100869.91;5091044;28;20192;-50
2023/01/02 07:16:09;;;;;;;33.37;21.40;;;;;;;5.10;100.00;100888.22;5090660;28;20199;-51
2023/01/02 07:18:36;;;;;;;29.03;19.63;;;;;;;5.07;100.00;100894.22;5090598;28;20198;-51
2023/01/02 07:21:03;;;;;;;28.50;20.30;;;;;;;5.07;100.00;100895.94;5090603;28;20210;-51
2023/01/02 07:23:30;;;;;;;29.93;20.10;;;;;;;5.20;100.00;100896.97;5090865;28;20221;-50
2023/01/02 07:26:00;;;;;;;30.53;20.53;;;;;;;5.18;100.00;100885.78;5090863;28;20203;-50
2023/01/02 07:28:28;;;;;;;30.70;20.10;;;;;;;5.23;100.00;100884.13;5090701;28;20583;-51
2023/01/02 07:30:57;;;;;;;32.63;20.63;;;;;;;5.27;100.00;100891.06;5090325;28;20191;-51
2023/01/02 07:33:24;;;;;;;31.23;20.90;;;;;;;5.23;100.00;100877.28;5089555;28;20728;-51
2023/01/02 07:35:51;;;;;;;30.23;19.73;;;;;;;5.22;100.00;100890.13;5090188;28;20203;-51
2023/01/02 07:38:18;;;;;;;34.07;20.87;;;;;;;5.23;100.00;100885.00;5090227;28;20286;-51
2023/01/02 07:40:45;;;;;;;30.30;19.80;;;;;;;5.37;100.00;100882.63;5087754;28;20314;-51
2023/01/02 07:43:13;;;;;;;29.57;19.73;;;;;;;5.55;100.00;100887.16;5089308;28;20290;-51
2023/01/02 07:45:40;;;;;;;31.87;19.87;;;;;;;5.65;100.00;100883.84;5086068;28;20201;-51
2023/01/02 07:48:07;;;;;;;30.80;19.37;;;;;;;5.81;100.00;100878.94;5087177;28;20205;-50
2023/01/02 07:50:34;;;;;;;27.53;18.43;;;;;;;5.87;100.00;100877.28;5086549;28;20219;-59
2023/01/02 07:53:01;;;;;;;28.60;19.00;;;;;;;5.95;100.00;100873.97;5087236;28;20675;-57
2023/01/02 07:55:28;;;;;;;31.57;19.27;;;;;;;5.97;100.00;100866.28;5088513;28;20277;-57
2023/01/02 07:57:54;;;;;;;32.83;20.27;;;;;;;6.09;100.00;100874.16;5089297;28;20199;-58
2023/01/02 08:00:23;;;;;;;29.63;19.70;;;;;;;6.09;100.00;100869.00;5088953;28;20196;-58
2023/01/02 08:02:52;;;;;;;31.67;20.10;;;;;;;6.12;100.00;100858.69;5088812;28;20689;-58
2023/01/02 08:05:19;;;;;;;33.83;21.67;;;;;;;6.22;100.00;100868.25;5089130;28;20777;-58
2023/01/02 08:07:45;;;;;;;36.00;22.00;;;;;;;6.35;100.00;100864.94;5089024;28;20590;-57
2023/01/02 08:10:13;;;;;;;32.93;21.13;;;;;;;6.48;100.00;100860.78;5087113;28;20710;-58
2023/01/02 08:12:40;;;;;;;45.60;22.30;;;;;;;6.59;100.00;100868.59;5084748;28;20196;-58
2023/01/02 08:15:07;;;;;;;34.80;21.87;;;;;;;6.72;100.00;100870.44;5085694;28;20203;-59
2023/01/02 08:17:36;;;;;;;34.67;22.20;;;;;;;6.89;100.00;100876.59;5085968;28;20221;-59
2023/01/02 08:20:03;;;;;;;37.87;22.07;;;;;;;6.87;100.00;100873.16;5080034;28;20195;-49
2023/01/02 08:22:29;;;;;;;47.93;25.63;;;;;;;6.89;100.00;100861.13;5086623;28;20640;-50
2023/01/02 08:24:56;;;;;;;34.13;22.30;;;;;;;6.92;100.00;100862.00;5087086;28;20203;-49
2023/01/02 08:27:23;;;;;;;34.73;22.27;;;;;;;7.00;100.00;100862.06;5086272;28;20187;-49
2023/01/02 08:29:50;;;;;;;33.67;20.57;;;;;;;7.11;100.00;100862.16;5085648;28;20221;-49
2023/01/02 08:32:17;;;;;;;32.17;20.17;;;;;;;7.10;100.00;100855.25;5086054;28;20199;-57
2023/01/02 08:34:46;;;;;;;31.70;21.37;;;;;;;7.17;100.00;100847.56;5086374;28;20195;-58
2023/01/02 08:37:12;;;;;;;31.83;21.23;;;;;;;7.20;100.00;100844.13;5085507;28;20199;-57
2023/01/02 08:39:39;;;;;;;31.83;20.90;;;;;;;7.20;100.00;100845.00;5086266;28;20685;-58
2023/01/02 08:42:06;;;;;;;27.40;19.67;;;;;;;7.24;100.00;100851.91;5086116;28;21166;-57
2023/01/02 08:44:34;;;;;;;33.77;22.37;;;;;;;7.38;100.00;100845.94;5086193;28;20242;-58
2023/01/02 08:47:01;;;;;;;30.00;20.40;;;;;;;7.40;100.00;100845.09;5086440;28;20221;-57
2023/01/02 08:49:27;;;;;;;27.03;18.50;;;;;;;7.60;100.00;100834.84;5086252;28;20604;-49
2023/01/02 08:51:56;;;;;;;25.67;18.40;;;;;;;7.63;100.00;100837.47;5082556;28;20268;-49
2023/01/02 08:54:23;;;;;;;27.27;19.27;;;;;;;7.61;100.00;100826.25;5086604;28;20222;-50
2023/01/02 08:56:50;;;;;;;27.30;19.10;;;;;;;7.77;100.00;100825.47;5086710;28;21267;-50
2023/01/02 08:59:17;;;;;;;29.00;19.50;;;;;;;7.83;100.00;100822.03;5086611;28;20223;-50
2023/01/02 09:01:44;;;;;;;25.47;17.17;;;;;;;7.97;100.00;100817.75;5086174;28;20218;-49
2023/01/02 09:04:11;;;;;;;27.70;19.20;;;;;;;8.05;100.00;100823.81;5086552;28;20240;-49
2023/01/02 09:06:38;;;;;;;26.40;17.30;;;;;;;8.18;100.00;100815.22;5084001;28;20219;-49
2023/01/02 09:09:06;;;;;;;31.40;18.60;;;;;;;8.32;100.00;100812.69;5085874;28;20226;-51
2023/01/02 09:11:35;;;;;;;24.50;18.07;;;;;;;8.33;100.00;100811.84;5086177;28;20306;-51
2023/01/02 09:14:04;;;;;;;33.67;20.67;;;;;;;8.45;100.00;100810.97;5086457;28;20197;-61
2023/01/02 09:16:31;;;;;;;28.73;19.30;;;;;;;8.54;100.00;100804.09;5087165;28;20202;-61
2023/01/02 09:19:00;;;;;;;29.30;18.07;;;;;;;8.48;100.00;100788.53;5084864;28;20197;-60
2023/01/02 09:21:27;;;;;;;25.13;18.10;;;;;;;8.58;100.00;100794.56;5086559;28;20220;-60
2023/01/02 09:23:54;;;;;;;27.33;18.50;;;;;;;8.67;100.00;100785.09;5086632;28;20191;-59
2023/01/02 09:26:22;;;;;;;35.20;22.33;;;;;;;8.91;100.00;100788.53;5087482;28;20482;-60
2023/01/02 09:28:49;;;;;;;44.77;26.60;;;;;;;8.99;100.00;100791.97;5087695;28;20502;-60
2023/01/02 09:31:17;;;;;;;35.80;20.87;;;;;;;9.06;100.00;100791.06;5089351;28;20211;-50
2023/01/02 09:33:45;;;;;;;54.63;29.77;;;;;;;9.15;100.00;100790.16;5091969;28;20195;-51
2023/01/02 09:36:14;;;;;;;62.80;35.90;;;;;;;9.23;100.00;100789.31;5091332;28;20199;-51
2023/01/02 09:38:41;;;;;;;36.60;23.73;;;;;;;9.31;100.00;100786.69;5088829;28;20361;-50
2023/01/02 09:41:31;;;;;;;46.33;30.90;;;;;;;9.37;100.00;100771.09;5090365;28;20220;-49
2023/01/02 09:44:01;;;;;;;48.50;32.20;;;;;;;9.43;100.00;100771.09;5088329;28;20203;-51
2023/01/02 09:46:36;;;;;;;36.33;25.30;;;;;;;9.53;100.00;100758.94;5090888;28;20583;-50
2023/01/02 09:49:04;;;;;;;32.37;20.90;;;;;;;9.54;100.00;100758.94;5088418;28;20289;-50
2023/01/02 09:51:32;;;;;;;34.63;22.27;;;;;;;9.58;100.00;100752.03;5090079;28;20309;-50
2023/01/02 09:53:59;;;;;;;36.23;25.87;;;;;;;9.65;100.00;100751.13;5087787;28;20295;-51
2023/01/02 09:56:34;;;;;;;39.20;24.83;;;;;;;9.79;100.00;100750.19;5090205;28;20210;-50
2023/01/02 09:59:10;;;;;;;31.87;20.37;;;;;;;9.90;100.00;100749.25;5087560;28;20198;-51
2023/01/02 10:01:46;;;;;;;29.23;18.57;;;;;;;10.11;100.00;100749.09;5090401;28;20199;-50
2023/01/02 10:04:23;;;;;;;27.53;19.50;;;;;;;10.14;100.00;100739.56;5090259;28;20209;-50
2023/01/02 10:07:00;;;;;;;39.17;21.80;;;;;;;10.17;100.00;100734.34;5090450;28;20203;-49
2023/01/02 10:09:36;;;;;;;44.43;25.57;;;;;;;10.14;100.00;100733.53;5088911;28;20282;-59
2023/01/02 10:12:11;;;;;;;37.10;24.77;;;;;;;10.24;100.00;100734.34;5088636;28;20190;-60
2023/01/02 10:14:52;;;;;;;37.80;26.17;;;;;;;10.16;100.00;100727.41;5090574;28;20191;-59
2023/01/02 10:17:20;;;;;;;42.40;26.53;;;;;;;10.17;100.00;100734.34;5087717;28;20415;-59
2023/01/02 10:19:53;;;;;;;39.87;26.63;;;;;;;10.33;100.00;100729.94;5090603;28;20586;-59
2023/01/02 10:22:26;;;;;;;39.37;26.17;;;;;;;10.43;100.00;100718.59;5087253;28;20304;-59
2023/01/02 10:25:01;;;;;;;29.43;20.80;;;;;;;10.52;100.00;100717.63;5090448;28;20217;-59
2023/01/02 10:27:34;;;;;;;29.30;20.67;;;;;;;10.55;100.00;100715.88;5089193;28;20659;-50
2023/01/02 10:30:06;;;;;;;26.47;19.30;;;;;;;10.63;100.00;100722.72;5088196;28;20721;-49
2023/01/02 10:32:35;;;;;;;27.63;19.07;;;;;;;10.71;100.00;100706.22;5090302;28;20238;-50
2023/01/02 10:35:14;;;;;;;29.27;20.87;;;;;;;10.86;100.00;100713.81;5090328;28;20203;-60
2023/01/02 10:37:41;;;;;;;22.30;16.63;;;;;;;10.94;100.00;100708.56;5088136;28;20191;-59
2023/01/02 10:40:09;;;;;;;28.30;17.80;;;;;;;11.00;100.00;100702.41;5089987;28;20223;-60
2023/01/02 10:42:37;;;;;;;24.90;17.70;;;;;;;11.10;100.00;100709.22;5089991;28;20202;-59
2023/01/02 10:45:07;;;;;;;25.70;18.83;;;;;;;11.18;100.00;100702.19;5090963;28;20195;-59
2023/01/02 10:47:36;;;;;;;31.03;20.33;;;;;;;11.19;100.00;100683.97;5089710;28;20201;-59
2023/01/02 10:50:06;;;;;;;28.27;20.00;;;;;;;11.28;100.00;100698.63;5091363;28;20314;-59
2023/01/02 10:52:35;;;;;;;32.37;20.80;;;;;;;11.34;100.00;100698.53;5091311;28;20202;-59
2023/01/02 10:55:02;;;;;;;24.10;18.87;;;;;;;11.36;100.00;100695.91;5091240;28;20586;-59
2023/01/02 10:57:40;;;;;;;25.03;18.20;;;;;;;11.54;100.00;100680.91;5090959;28;20195;-59
2023/01/02 11:00:26;;;;;;;28.90;19.63;;;;;;;11.53;100.00;100679.19;5089897;28;20195;-59
2023/01/02 11:02:55;;;;;;;25.23;18.63;;;;;;;11.70;100.00;100680.72;5089089;28;20217;-59
2023/01/02 11:05:24;;;;;;;28.07;19.00;;;;;;;11.73;100.00;100673.72;5086947;28;20203;-57
2023/01/02 11:07:52;;;;;;;27.63;21.07;;;;;;;11.73;100.00;100676.31;5070996;28;20263;-58
2023/01/02 11:10:23;;;;;;;33.60;20.80;;;;;;;11.77;100.00;100671.94;5081919;28;20561;-58
2023/01/02 11:12:52;;;;;;;27.17;20.63;;;;;;;11.83;100.00;100661.47;5089291;28;20195;-59
2023/01/02 11:15:25;;;;;;;24.73;18.40;;;;;;;11.74;100.00;100662.41;5090395;28;20571;-59
2023/01/02 11:17:52;;;;;;;29.03;19.40;;;;;;;11.76;100.00;100665.03;5090470;28;20210;-59
2023/01/02 11:20:25;;;;;;;24.57;18.77;;;;;;;11.84;100.00;100663.19;5090656;28;20214;-60
2023/01/02 11:22:54;;;;;;;28.93;18.37;;;;;;;11.76;100.00;100654.63;5090837;28;20630;-59